Test XHTML 1.0 Strict Page for WU-History Testing
Histórico de la Estación METEOCORUÑA
Diario Datos del Noviembre 8, 2018 Unidades:  Metrico    Inglés   Ambos
« Prev Dia
Sig Dia »
Diario Semanal Mensual Anual Rango
  Max: Min: Media:
Temp: -17.8 °C -12.6 °C -11.7 °C
Rocío: -17.8 °C -14.3 °C -13.2 °C
Humedad: Humidity % 74 % 83 %
Vel. viento: 0 km/h 7.7 km/h 35.6 km/h
Racha: 0 km/h - -
Viento:- - SSE
Presión: 0 hPa 34049.6 hPa -
Lluvia: 393.7 mm    
Historical Graphs
 
 
Busqueda de Noviembre 8, 2018
Hora Temp Rocío Presión Viento Vel. viento Racha Humedad Ratio lluvia (/hora) Radiación
-17.8 °C -17.8 °C 0 hPa Calm     Humidity % 0 mm SolarRadiationWatts/m^2 W/m2
00:49 -11.6 °C -13.6 °C 34317.1 hPa SE 20.8 km/h 49.2 km/h 79 % 0 mm 0.00 W/m2
00:54 -11.7 °C -13.6 °C 34313.7 hPa SSE 18.2 km/h 25.9 km/h 79 % 0 mm 0.00 W/m2
00:59 -11.8 °C -13.6 °C 34307 hPa SE 12.9 km/h 28.5 km/h 80 % 0 mm 0.00 W/m2
01:04 -11.8 °C -13.7 °C 34286.6 hPa SE 31.1 km/h 16.1 km/h 80 % 0 mm 0.00 W/m2
01:09 -11.9 °C -13.7 °C 34300.2 hPa SE 12.9 km/h 33.6 km/h 80 % 0 mm 0.00 W/m2
01:14 -11.9 °C -13.6 °C 34296.8 hPa SE 12.9 km/h 36.2 km/h 81 % 0 mm 0.00 W/m2
01:19 -11.9 °C -13.7 °C 34279.9 hPa East 29.8 km/h 16.1 km/h 81 % 0 mm 0.00 W/m2
01:24 -11.8 °C -13.6 °C 34296.8 hPa SE 15.6 km/h 38.8 km/h 81 % 0 mm 0.00 W/m2
01:29 -11.8 °C -13.5 °C 34296.8 hPa SE 15.6 km/h 36.2 km/h 81 % 0 mm 0.00 W/m2
01:34 -11.7 °C -13.6 °C 34286.6 hPa SE 20.8 km/h 57 km/h 80 % 0 mm 0.00 W/m2
01:39 -11.6 °C -13.6 °C 34286.6 hPa SE 23.3 km/h 67.3 km/h 79 % 0 mm 0.00 W/m2
01:44 -11.6 °C -13.5 °C 34290 hPa SE 28.5 km/h 54.4 km/h 79 % 0 mm 0.00 W/m2
01:49 -11.6 °C -13.5 °C 34290 hPa SE 28.5 km/h 44.1 km/h 79 % 0 mm 0.00 W/m2
01:54 -11.6 °C -13.5 °C 34273.1 hPa SE 50.7 km/h 27.2 km/h 79 % 0 mm 0.00 W/m2
01:59 -11.6 °C -13.5 °C 34279.9 hPa SE 25.9 km/h 57 km/h 79 % 0 mm 0.00 W/m2
02:04 -11.6 °C -13.6 °C 34273.1 hPa SE 23.3 km/h 46.7 km/h 79 % 0 mm 0.00 W/m2
02:09 -11.6 °C -13.6 °C 34269.7 hPa SE 20.8 km/h 38.8 km/h 79 % 0 mm 0.00 W/m2
02:14 -11.7 °C -13.7 °C 34262.9 hPa SE 18.2 km/h 44.1 km/h 78 % 0 mm 0.00 W/m2
02:19 -11.7 °C -13.7 °C 34256.2 hPa SE 18.2 km/h 59.5 km/h 79 % 0 mm 0.00 W/m2
02:24 -11.7 °C -13.7 °C 34266.3 hPa SE 20.8 km/h 54.4 km/h 79 % 0 mm 0.00 W/m2
02:29 -11.7 °C -13.8 °C 34256.2 hPa ESE 20.8 km/h 46.7 km/h 78 % 0 mm 0.00 W/m2
02:34 -11.8 °C -13.7 °C 34259.5 hPa SE 20.8 km/h 46.7 km/h 79 % 0 mm 0.00 W/m2
02:39 -11.8 °C -13.8 °C 34239.2 hPa SE 29.8 km/h 10.9 km/h 79 % 0 mm 0.00 W/m2
02:44 -11.9 °C -13.8 °C 34259.5 hPa SE 15.6 km/h 44.1 km/h 79 % 0 mm 0.00 W/m2
02:49 -11.9 °C -13.9 °C 34256.2 hPa SE 15.6 km/h 44.1 km/h 79 % 0 mm 0.00 W/m2
02:54 -12 °C -13.8 °C 34249.4 hPa SE 20.8 km/h 49.2 km/h 80 % 0 mm 0.00 W/m2
02:59 -12 °C -13.8 °C 34249.4 hPa SE 20.8 km/h 41.4 km/h 80 % 0 mm 0.00 W/m2
03:04 -12 °C -13.8 °C 34246 hPa SE 18.2 km/h 46.7 km/h 80 % 0 mm 0.00 W/m2
03:09 -12 °C -13.8 °C 34229.1 hPa SE 29.8 km/h 15.6 km/h 80 % 0 mm 0.00 W/m2
03:14 -12 °C -13.8 °C 34242.6 hPa SE 15.6 km/h 46.7 km/h 80 % 0 mm 0.00 W/m2
03:19 -11.9 °C -13.7 °C 34246 hPa SE 18.2 km/h 46.7 km/h 80 % 0 mm 0.00 W/m2
03:24 -11.8 °C -13.6 °C 34249.4 hPa SE 18.2 km/h 64.7 km/h 80 % 0 mm 0.00 W/m2
03:29 -11.7 °C -13.7 °C 34239.2 hPa SE 23.3 km/h 46.7 km/h 79 % 0 mm 0.00 W/m2
03:34 -11.7 °C -13.6 °C 34235.8 hPa SE 25.9 km/h 46.7 km/h 79 % 0 mm 0.00 W/m2
03:39 -11.6 °C -13.6 °C 34239.2 hPa SE 25.9 km/h 62.1 km/h 78 % 0 mm 0.00 W/m2
03:44 -11.6 °C -13.6 °C 34229.1 hPa SE 25.9 km/h 49.2 km/h 78 % 0 mm 0.00 W/m2
03:49 -11.6 °C -13.7 °C 34229.1 hPa SE 20.8 km/h 38.8 km/h 78 % 0 mm 0.00 W/m2
03:54 -11.6 °C -13.7 °C 34218.9 hPa SSE 53.6 km/h 25.9 km/h 78 % 0 mm 0.00 W/m2
03:59 -11.6 °C -13.6 °C 34229.1 hPa SE 15.6 km/h 51.8 km/h 78 % 0 mm 0.00 W/m2
04:04 -11.5 °C -13.7 °C 34225.7 hPa SE 20.8 km/h 49.2 km/h 77 % 0 mm 0.00 W/m2
04:09 -11.6 °C -13.7 °C 34218.9 hPa SE 20.8 km/h 38.8 km/h 77 % 0 mm 0.00 W/m2
04:14 -11.6 °C -13.8 °C 34222.3 hPa SE 20.8 km/h 49.2 km/h 77 % 0 mm 0.00 W/m2
04:19 -11.6 °C -13.8 °C 34202 hPa SE 41.7 km/h 15.6 km/h 77 % 0 mm 0.00 W/m2
04:24 -11.7 °C -13.9 °C 34222.3 hPa SE 18.2 km/h 49.2 km/h 77 % 0 mm 0.00 W/m2
04:29 -11.7 °C -13.9 °C 34212.1 hPa SE 20.8 km/h 44.1 km/h 77 % 0 mm 0.00 W/m2
04:34 -11.7 °C -13.8 °C 34215.5 hPa SE 25.9 km/h 44.1 km/h 77 % 0 mm 0.00 W/m2
04:39 -11.7 °C -13.9 °C 34218.9 hPa SE 25.9 km/h 67.3 km/h 76 % 0 mm 0.00 W/m2
04:44 -11.7 °C -13.9 °C 34215.5 hPa SE 23.3 km/h 54.4 km/h 76 % 0 mm 0.00 W/m2
04:49 -11.7 °C -14 °C 34208.8 hPa SE 20.8 km/h 38.8 km/h 76 % 0 mm 0.00 W/m2
04:54 -11.8 °C -14.1 °C 34208.8 hPa SE 18.2 km/h 38.8 km/h 76 % 0 mm 0.00 W/m2
04:59 -11.8 °C -14.1 °C 34202 hPa ESE 18.2 km/h 41.4 km/h 76 % 0 mm 0.00 W/m2
05:04 -11.8 °C -14.1 °C 34202 hPa ESE 18.2 km/h 36.2 km/h 76 % 0 mm 0.00 W/m2
05:09 -11.8 °C -14.1 °C 34198.6 hPa SE 15.6 km/h 38.8 km/h 76 % 0 mm 0.00 W/m2
05:14 -11.9 °C -14.1 °C 34195.2 hPa SE 15.6 km/h 38.8 km/h 76 % 0 mm 0.00 W/m2
05:19 -11.9 °C -14.2 °C 34198.6 hPa ESE 15.6 km/h 41.4 km/h 76 % 0 mm 0.00 W/m2
05:24 -11.9 °C -14.2 °C 34195.2 hPa ESE 15.6 km/h 51.8 km/h 76 % 0 mm 0.00 W/m2
05:29 -12 °C -14.3 °C 34195.2 hPa ESE 15.6 km/h 31.1 km/h 76 % 0 mm 0.00 W/m2
05:34 -12 °C -14.3 °C 34178.3 hPa ESE 46.7 km/h 18.2 km/h 76 % 0 mm 0.00 W/m2
05:39 -12 °C -14.1 °C 34188.4 hPa SE 15.6 km/h 57 km/h 77 % 0 mm 0.00 W/m2
05:44 -12 °C -14.1 °C 34181.7 hPa SE 15.6 km/h 41.4 km/h 77 % 0 mm 0.00 W/m2
05:49 -12 °C -14.1 °C 34181.7 hPa ESE 15.6 km/h 44.1 km/h 77 % 0 mm 0.00 W/m2
05:54 -12 °C -14.1 °C 34181.7 hPa ESE 15.6 km/h 41.4 km/h 77 % 0 mm 0.00 W/m2
05:59 -12.1 °C -14.2 °C 34185.1 hPa ESE 15.6 km/h 44.1 km/h 77 % 0 mm 0.00 W/m2
06:04 -12.1 °C -14.1 °C 34178.3 hPa ESE 12.9 km/h 36.2 km/h 78 % 0 mm 0.00 W/m2
06:09 -12.1 °C -14.3 °C 34174.9 hPa ESE 18.2 km/h 46.7 km/h 77 % 0 mm 0.00 W/m2
06:13 -12.1 °C -14.2 °C 34161.4 hPa SE 41.4 km/h 16.9 km/h 77 % 0 mm 0.00 W/m2
06:18 -12.1 °C -14.2 °C 34161.4 hPa ESE 47.6 km/h 27.7 km/h 77 % 0 mm 0.00 W/m2
06:23 -12.1 °C -14.2 °C 34161.4 hPa ESE 28.5 km/h 12.2 km/h 77 % 0 mm 0.00 W/m2
06:28 -12.1 °C -14.2 °C 34151.2 hPa SSE 62.1 km/h 19.2 km/h 77 % 0 mm 0.00 W/m2
06:32 -12.1 °C -14.2 °C 34151.2 hPa ESE 59.5 km/h 22.5 km/h 77 % 0 mm 0.00 W/m2
06:38 -12.1 °C -14.2 °C 34151.2 hPa ESE 29.8 km/h 12.9 km/h 77 % 0 mm 0.00 W/m2
06:42 -12.1 °C -14.2 °C 34144.4 hPa ESE 36.2 km/h 16.9 km/h 77 % 0 mm 0.00 W/m2
06:47 -12.1 °C -14.3 °C 34141 hPa SE 23.3 km/h 11.9 km/h 77 % 0 mm 0.00 W/m2
06:53 -12.1 °C -14.3 °C 34137.7 hPa SW 38.8 km/h 13.2 km/h 77 % 0 mm 0.00 W/m2
06:58 -12.1 °C -14.2 °C 34134.3 hPa SE 44.1 km/h 23.8 km/h 77 % 0 mm 0.00 W/m2
07:00 -11.8 °C -14.1 °C 34124.1 hPa ESE 18.2 km/h 54.4 km/h 76 % 0 mm 0.00 W/m2
07:03 -12.1 °C -14.2 °C 34130.9 hPa SSE 44.1 km/h 20.4 km/h 77 % 0 mm 0.00 W/m2
07:08 -12 °C -14.3 °C 34127.5 hPa SSE 28.5 km/h 11.6 km/h 76 % 0 mm 0.00 W/m2
07:11 -12 °C -14.2 °C 34127.5 hPa ESE 59.5 km/h 29.3 km/h 76 % 0 mm 0.00 W/m2
07:22 -11.9 °C -14.2 °C 34114 hPa SE 56.6 km/h 27.5 km/h 76 % 0 mm 0.00 W/m2
07:28 -11.9 °C -14.2 °C 34117.3 hPa SSE 47.6 km/h 18.3 km/h 76 % 0 mm 0.00 W/m2
07:30 -11.7 °C -14.1 °C 34120.7 hPa ESE 18.2 km/h 51.8 km/h 75 % 0 mm 0.00 W/m2
07:33 -11.9 °C -14.1 °C 34110.6 hPa SSE 53.6 km/h 14.5 km/h 76 % 0 mm 0.00 W/m2
07:37 -11.8 °C -14.1 °C 34110.6 hPa ESE 41.4 km/h 17.1 km/h 76 % 0 mm 0.00 W/m2
07:40 -11.8 °C -14.1 °C 34110.6 hPa ESE 41.7 km/h 15.8 km/h 76 % 0 mm 0.00 W/m2
07:48 -11.8 °C -14.1 °C 34114 hPa ESE 38.8 km/h 18.7 km/h 76 % 0 mm 0.00 W/m2
07:52 -11.8 °C -14.1 °C 34110.6 hPa ESE 44.7 km/h 11.6 km/h 76 % 0 mm 0.00 W/m2
07:58 -11.8 °C -14.1 °C 34107.2 hPa East 49.2 km/h 18.2 km/h 76 % 0 mm 0.00 W/m2
08:00 -11.4 °C -13.9 °C 34120.7 hPa SE 20.8 km/h 80.3 km/h 74 % 0 mm 9.00 W/m2
08:03 -11.8 °C -14.1 °C 34103.8 hPa ESE 38.8 km/h 10.9 km/h 76 % 0 mm 0.00 W/m2
08:08 -11.8 °C -14.1 °C 34100.4 hPa ESE 36.2 km/h 19.6 km/h 76 % 0 mm 0.00 W/m2
08:13 -11.8 °C -14 °C 34103.8 hPa ESE 41.4 km/h 20 km/h 76 % 0 mm 0.00 W/m2
08:16 -11.7 °C -14 °C 34103.8 hPa SSE 51.8 km/h 18.8 km/h 76 % 0 mm 0.00 W/m2
08:23 -11.6 °C -14 °C 34103.8 hPa East 41.7 km/h 11.4 km/h 75 % 0 mm 0.00 W/m2
08:28 -11.6 °C -14 °C 34107.2 hPa SSE 38.8 km/h 20.9 km/h 75 % 0 mm 0.00 W/m2
08:30 -11.2 °C -13.5 °C 34141 hPa SSE 23.3 km/h 69.8 km/h 76 % 0 mm 21.00 W/m2
08:33 -11.6 °C -13.9 °C 34103.8 hPa SE 41.4 km/h 23 km/h 75 % 0 mm 5.00 W/m2
08:38 -11.5 °C -13.9 °C 34110.6 hPa SE 35.7 km/h 22.5 km/h 75 % 0 mm 9.00 W/m2
08:42 -11.5 °C -13.8 °C 34110.6 hPa SE 26.9 km/h 7.2 km/h 75 % 0 mm 11.00 W/m2
08:48 -11.3 °C -13.8 °C 34103.8 hPa SSE 47.6 km/h 20.8 km/h 74 % 0 mm 12.00 W/m2
08:53 -11.3 °C -13.8 °C 34107.2 hPa SE 46.7 km/h 25.6 km/h 74 % 0 mm 11.00 W/m2
08:58 -11.2 °C -13.7 °C 34100.4 hPa SSE 29.8 km/h 14 km/h 74 % 0 mm 12.00 W/m2
09:02 -11.2 °C -13.7 °C 34103.8 hPa SSE 47.6 km/h 14.8 km/h 74 % 0 mm 14.00 W/m2
09:07 -11.2 °C -13.7 °C 34103.8 hPa SE 50.7 km/h 26.4 km/h 74 % 0 mm 16.00 W/m2
09:13 -11.2 °C -13.7 °C 34114 hPa SE 69.8 km/h 34.9 km/h 74 % 0 mm 23.00 W/m2
09:17 -11.2 °C -13.7 °C 34103.8 hPa South 29.8 km/h 15.8 km/h 74 % 0 mm 30.00 W/m2
09:23 -11.3 °C -13.7 °C 34107.2 hPa ESE 46.7 km/h 20 km/h 75 % 0 mm 18.00 W/m2
09:28 -11.3 °C -13.6 °C 34110.6 hPa SE 64.7 km/h 39.9 km/h 76 % 0 mm 32.00 W/m2
09:33 -11.3 °C -13.4 °C 34114 hPa SSE 46.7 km/h 30.7 km/h 77 % 0 mm 40.00 W/m2
09:38 -11.3 °C -13.4 °C 34114 hPa SE 50.7 km/h 19.5 km/h 78 % 0 mm 42.00 W/m2
09:42 -11.4 °C -13.3 °C 34110.6 hPa South 41.7 km/h 13.7 km/h 79 % 0 mm 46.00 W/m2
09:48 -11.4 °C -13.3 °C 34103.8 hPa SE 26.9 km/h 7.2 km/h 80 % 0 mm 65.00 W/m2
09:53 -11.4 °C -13.3 °C 34107.2 hPa South 44.7 km/h 9.3 km/h 80 % 0 mm 97.00 W/m2
09:58 -11.5 °C -13.2 °C 34100.4 hPa SE 47.6 km/h 24.6 km/h 81 % 0 mm 93.00 W/m2
10:03 -11.5 °C -13.3 °C 34093.6 hPa SSE 36.2 km/h 22.2 km/h 81 % 0 mm 77.00 W/m2
10:08 -11.6 °C -13.2 °C 34093.6 hPa ESE 35.7 km/h 18.8 km/h 82 % 0 mm 91.00 W/m2
10:13 -11.6 °C -13.2 °C 34086.9 hPa SE 35.7 km/h 10.9 km/h 82 % 0 mm 62.00 W/m2
10:18 -11.6 °C -13.2 °C 34090.2 hPa ESE 38.8 km/h 5.5 km/h 82 % 0 mm 63.00 W/m2
10:21 -11.6 °C -13.2 °C 34086.9 hPa SE 38.8 km/h 14.5 km/h 83 % 0 mm 72.00 W/m2
10:26 -11.6 °C -13.2 °C 34086.9 hPa SE 47.6 km/h 15.8 km/h 83 % 0 mm 56.00 W/m2
10:32 -11.6 °C -13.2 °C 34090.2 hPa East 33.6 km/h 17.4 km/h 83 % 0 mm 74.00 W/m2
10:38 -11.6 °C -13.2 °C 34076.7 hPa SE 36.2 km/h 14 km/h 83 % 0 mm 86.00 W/m2
10:42 -11.6 °C -13.2 °C 34086.9 hPa East 47.6 km/h 20 km/h 83 % 0 mm 100.00 W/m2
10:48 -11.6 °C -13.1 °C 34086.9 hPa South 38.8 km/h 21.6 km/h 83 % 0 mm 72.00 W/m2
10:53 -11.5 °C -13.1 °C 34076.7 hPa ESE 65.5 km/h 27.5 km/h 83 % 0 mm 178.00 W/m2
10:57 -11.4 °C -13 °C 34063.2 hPa ESE 44.7 km/h 20 km/h 83 % 0 mm 165.00 W/m2
11:00 -11.4 °C -12.8 °C 34083.5 hPa SE 18.2 km/h 62.1 km/h 84 % 0 mm 128.00 W/m2
11:03 -11.4 °C -13.1 °C 34069.9 hPa East 57 km/h 20.8 km/h 82 % 0 mm 88.00 W/m2
11:08 -11.5 °C -13.1 °C 34066.5 hPa SE 41.4 km/h 17.4 km/h 82 % 0 mm 65.00 W/m2
11:12 -11.5 °C -13.1 °C 34073.3 hPa SSE 50.7 km/h 17.1 km/h 83 % 0 mm 81.00 W/m2
11:18 -11.6 °C -13 °C 34056.4 hPa ESE 47.6 km/h 28 km/h 84 % 0 mm 114.00 W/m2
11:22 -11.6 °C -13 °C 34049.6 hPa SSE 50.7 km/h 25.9 km/h 84 % 0 mm 114.00 W/m2
11:27 -11.6 °C -12.9 °C 34053 hPa East 67.3 km/h 20.8 km/h 85 % 0 mm 156.00 W/m2
11:30 -11.2 °C -12.7 °C 34083.5 hPa SE 23.3 km/h 67.3 km/h 83 % 0 mm 77.00 W/m2
11:33 -11.5 °C -12.9 °C 34049.6 hPa SE 47.6 km/h 23 km/h 85 % 0 mm 274.00 W/m2
11:38 -11.4 °C -12.8 °C 34053 hPa SSW 54.4 km/h 19.6 km/h 85 % 0 mm 267.00 W/m2
11:43 -11.3 °C -12.7 °C 34073.3 hPa SSE 62.6 km/h 30.7 km/h 85 % 0 mm 79.00 W/m2
11:48 -11.3 °C -12.8 °C 34069.9 hPa SE 33.6 km/h 15 km/h 84 % 0 mm 21.00 W/m2
11:53 -11.3 °C -12.7 °C 34066.5 hPa SSE 41.7 km/h 19.2 km/h 84 % 0 mm 44.00 W/m2
11:57 -11.3 °C -12.7 °C 34076.7 hPa SE 35.7 km/h 4.2 km/h 84 % 0 mm 62.00 W/m2
12:00 -11.1 °C -12.6 °C 34073.3 hPa SE 20.8 km/h 62.1 km/h 84 % 0 mm 99.00 W/m2
12:03 -11.3 °C -12.7 °C 34063.2 hPa SE 38.8 km/h 17.4 km/h 84 % 0 mm 79.00 W/m2
12:08 -11.2 °C -12.7 °C 34073.3 hPa SSE 50.7 km/h 29.8 km/h 84 % 0 mm 91.00 W/m2
12:11 -11.2 °C -12.7 °C 34069.9 hPa SE 41.7 km/h 14 km/h 83 % 0 mm 107.00 W/m2
12:16 -11.2 °C -12.7 °C 34069.9 hPa ESE 62.6 km/h 24.8 km/h 83 % 0 mm 100.00 W/m2
12:20 -11.2 °C -12.7 °C 34076.7 hPa SSE 59.5 km/h 28 km/h 83 % 0 mm 65.00 W/m2
12:27 -11.2 °C -12.7 °C 34066.5 hPa SSE 44.7 km/h 18.2 km/h 83 % 0 mm 42.00 W/m2
12:33 -11.2 °C -12.7 °C 34063.2 hPa SSE 46.7 km/h 31.5 km/h 83 % 0 mm 53.00 W/m2
12:38 -11.2 °C -12.7 °C 34069.9 hPa SSE 38.8 km/h 19.6 km/h 83 % 0 mm 91.00 W/m2
12:43 -11.2 °C -12.7 °C 34063.2 hPa SE 38.8 km/h 22.9 km/h 83 % 0 mm 134.00 W/m2
12:47 -11.1 °C -12.7 °C 34056.4 hPa ESE 54.4 km/h 22.5 km/h 83 % 0 mm 134.00 W/m2
12:53 -11.1 °C -12.6 °C 34063.2 hPa ESE 50.7 km/h 26.4 km/h 83 % 0 mm 97.00 W/m2
12:57 -11.1 °C -12.5 °C 34056.4 hPa SSE 33.6 km/h 14.5 km/h 84 % 0 mm 98.00 W/m2
13:03 -11.1 °C -12.6 °C 34053 hPa SE 26.9 km/h 16.3 km/h 84 % 0 mm 56.00 W/m2
13:08 -11.1 °C -12.6 °C 34049.6 hPa South 36.2 km/h 18.3 km/h 84 % 0 mm 37.00 W/m2
13:12 -11.1 °C -12.6 °C 34059.8 hPa SE 59.5 km/h 14.2 km/h 84 % 0 mm 70.00 W/m2
13:15 -11 °C -12.4 °C 34049.6 hPa SSE 38.8 km/h 22.9 km/h 84 % 0 mm 100.00 W/m2
13:21 -10.9 °C -12.4 °C 34056.4 hPa SE 57 km/h 27.2 km/h 84 % 0 mm 127.00 W/m2
13:26 -10.9 °C -12.3 °C 34049.6 hPa SE 38.8 km/h 21.7 km/h 84 % 0 mm 257.00 W/m2
13:30 -11.3 °C -12.8 °C 34083.5 hPa South 31.1 km/h 90.6 km/h 83 % 20.32 mm 67.00 W/m2
13:33 -10.8 °C -12.4 °C 34056.4 hPa SSE 38.8 km/h 21.2 km/h 83 % 0 mm 63.00 W/m2
13:37 -10.8 °C -12.5 °C 34056.4 hPa NNW 50.7 km/h 19.6 km/h 82 % 0 mm 51.00 W/m2
13:43 -10.8 °C -12.5 °C 34056.4 hPa SSE 77.7 km/h 32.8 km/h 82 % 0 mm 33.00 W/m2
13:47 -10.8 °C -12.6 °C 34063.2 hPa South 50.7 km/h 27.5 km/h 81 % 0 mm 25.00 W/m2
13:53 -10.9 °C -12.7 °C 34049.6 hPa SE 74.5 km/h 40.7 km/h 81 % 0 mm 14.00 W/m2
13:56 -11 °C -12.7 °C 34056.4 hPa South 57 km/h 33.2 km/h 81 % 7.62 mm 12.00 W/m2
14:03 -11.2 °C -12.8 °C 34053 hPa South 53.6 km/h 28.2 km/h 82 % 12.7 mm 18.00 W/m2
14:08 -11.3 °C -12.8 °C 34053 hPa South 65.5 km/h 32.7 km/h 83 % 12.7 mm 44.00 W/m2
14:13 -11.3 °C -12.9 °C 34053 hPa SE 68.6 km/h 29.3 km/h 83 % 12.7 mm 49.00 W/m2
14:17 -11.3 °C -12.9 °C 34049.6 hPa South 54.4 km/h 32.2 km/h 83 % 20.32 mm 83.00 W/m2
14:23 -11.3 °C -12.7 °C 34059.8 hPa South 54.4 km/h 34.9 km/h 84 % 20.32 mm 97.00 W/m2
14:27 -11.2 °C -12.7 °C 34059.8 hPa SSE 57 km/h 33.6 km/h 84 % 20.32 mm 132.00 W/m2
14:30 -11.2 °C -12.5 °C 34076.7 hPa SSE 18.2 km/h 57 km/h 85 % 0 mm 151.00 W/m2
14:31 -11.2 °C -12.7 °C 34066.5 hPa SSE 57 km/h 35.7 km/h 83 % 20.32 mm 148.00 W/m2
14:38 -11.2 °C -12.7 °C 34066.5 hPa South 41.4 km/h 30.6 km/h 83 % 20.32 mm 125.00 W/m2
14:42 -11.2 °C -12.7 °C 34066.5 hPa SE 44.1 km/h 24.6 km/h 84 % 20.32 mm 156.00 W/m2
14:48 -11.3 °C -12.7 °C 34076.7 hPa SSE 59.5 km/h 29.8 km/h 85 % 20.32 mm 111.00 W/m2
14:53 -11.3 °C -12.6 °C 34063.2 hPa SE 47.6 km/h 22.9 km/h 86 % 20.32 mm 141.00 W/m2
14:57 -11.3 °C -12.6 °C 34063.2 hPa SE 41.4 km/h 22 km/h 86 % 12.7 mm 137.00 W/m2
15:00 -11.1 °C -12.3 °C 34090.2 hPa South 15.6 km/h 46.7 km/h 86 % 0 mm 115.00 W/m2
15:03 -11.3 °C -12.6 °C 34063.2 hPa SE 44.7 km/h 9.3 km/h 86 % 12.7 mm 162.00 W/m2
15:08 -11.2 °C -12.5 °C 34056.4 hPa SSE 33.6 km/h 17.5 km/h 86 % 12.7 mm 237.00 W/m2
15:13 -11.1 °C -12.4 °C 34059.8 hPa SSE 26.9 km/h 15.3 km/h 86 % 7.62 mm 197.00 W/m2
15:17 -11.1 °C -12.4 °C 34059.8 hPa SSE 26.9 km/h 11.6 km/h 85 % 0 mm 109.00 W/m2
15:23 -11 °C -12.4 °C 34059.8 hPa SSE 50.7 km/h 23.8 km/h 85 % 0 mm 86.00 W/m2
15:28 -11 °C -12.4 °C 34059.8 hPa South 46.7 km/h 28 km/h 85 % 0 mm 125.00 W/m2
15:30 -11.2 °C -12.3 °C 34107.2 hPa South 20.8 km/h 51.8 km/h 87 % 12.7 mm 58.00 W/m2
15:32 -11.1 °C -12.4 °C 34063.2 hPa South 33.6 km/h 18.7 km/h 85 % 0 mm 91.00 W/m2
15:36 -11.1 °C -12.4 °C 34066.5 hPa South 32.8 km/h 15.8 km/h 85 % 0 mm 88.00 W/m2
15:43 -11.1 °C -12.3 °C 34066.5 hPa SSW 31.1 km/h 13.5 km/h 86 % 0 mm 116.00 W/m2
15:48 -11.1 °C -12.3 °C 34073.3 hPa SSE 23.3 km/h 14.8 km/h 86 % 0 mm 123.00 W/m2
15:52 -11 °C -12.3 °C 34069.9 hPa South 15.6 km/h 4.2 km/h 86 % 0 mm 135.00 W/m2
15:57 -11 °C -12.3 °C 34073.3 hPa South 33.6 km/h 16.3 km/h 86 % 0 mm 100.00 W/m2
16:08 -11 °C -12.4 °C 34080.1 hPa South 36.2 km/h 18.8 km/h 85 % 0 mm 35.00 W/m2
16:12 -11.1 °C -12.4 °C 34083.5 hPa South 41.7 km/h 14.5 km/h 85 % 0 mm 25.00 W/m2
16:17 -11.3 °C -12.6 °C 34086.9 hPa SSW 38.8 km/h 27.7 km/h 86 % 12.7 mm 56.00 W/m2
16:23 -11.3 °C -12.6 °C 34086.9 hPa South 33.6 km/h 18.8 km/h 87 % 12.7 mm 88.00 W/m2
16:28 -11.3 °C -12.5 °C 34090.2 hPa South 47.6 km/h 24.6 km/h 87 % 12.7 mm 107.00 W/m2
16:30 -11.1 °C -12.9 °C 34117.3 hPa South 28.5 km/h 54.4 km/h 80 % 7.62 mm 93.00 W/m2
16:32 -11.3 °C -12.4 °C 34086.9 hPa South 38.8 km/h 18.3 km/h 87 % 12.7 mm 248.00 W/m2
16:35 -11.2 °C -12.4 °C 34090.2 hPa SSW 31.1 km/h 19.5 km/h 87 % 12.7 mm 260.00 W/m2
16:43 -11.2 °C -12.4 °C 34090.2 hPa South 44.1 km/h 27.5 km/h 86 % 20.32 mm 178.00 W/m2
16:48 -11.2 °C -12.5 °C 34090.2 hPa South 50.7 km/h 25.4 km/h 85 % 20.32 mm 53.00 W/m2
16:57 -11.1 °C -12.4 °C 34090.2 hPa South 41.7 km/h 26.4 km/h 85 % 20.32 mm 169.00 W/m2
17:00 -11.3 °C -13.1 °C 34141 hPa South 31.1 km/h 64.7 km/h 81 % 0 mm 14.00 W/m2
17:03 -11.1 °C -12.5 °C 34093.6 hPa South 44.1 km/h 29.8 km/h 84 % 20.32 mm 141.00 W/m2
17:07 -11.1 °C -12.5 °C 34097 hPa South 50.7 km/h 35.2 km/h 84 % 20.32 mm 139.00 W/m2
17:13 -11 °C -12.7 °C 34097 hPa South 50.7 km/h 29.3 km/h 82 % 20.32 mm 100.00 W/m2
17:18 -11 °C -12.8 °C 34100.4 hPa South 50.7 km/h 25.4 km/h 81 % 7.62 mm 84.00 W/m2
17:21 -11.1 °C -12.8 °C 34103.8 hPa South 47.6 km/h 17.9 km/h 81 % 7.62 mm 30.00 W/m2
17:28 -11.2 °C -13.1 °C 34100.4 hPa South 53.6 km/h 15.6 km/h 80 % 7.62 mm 62.00 W/m2
17:30 -11.8 °C -13 °C 34161.4 hPa South 36.2 km/h 64.7 km/h 87 % 0 mm 0.00 W/m2
17:33 -11.3 °C -13.1 °C 34100.4 hPa South 57 km/h 31.9 km/h 80 % 7.62 mm 26.00 W/m2
17:37 -11.3 °C -13.2 °C 34103.8 hPa South 65.5 km/h 31.5 km/h 80 % 0 mm 21.00 W/m2
17:43 -11.4 °C -13.2 °C 34110.6 hPa South 59.5 km/h 37.3 km/h 80 % 0 mm 12.00 W/m2
17:48 -11.4 °C -13.2 °C 34110.6 hPa South 59.5 km/h 31.4 km/h 80 % 0 mm 9.00 W/m2
17:53 -11.4 °C -13.3 °C 34117.3 hPa South 41.4 km/h 30.1 km/h 80 % 0 mm 5.00 W/m2
17:57 -11.5 °C -13.2 °C 34117.3 hPa South 47.6 km/h 27.5 km/h 81 % 0 mm 0.00 W/m2
18:00 -12.3 °C -13 °C 34188.4 hPa SSW 28.5 km/h 64.7 km/h 91 % 71.12 mm 0.00 W/m2
18:03 -11.6 °C -13.2 °C 34124.1 hPa SSW 50.7 km/h 38.1 km/h 83 % 0 mm 0.00 W/m2
18:08 -11.8 °C -13.3 °C 34127.5 hPa South 62.6 km/h 39.6 km/h 83 % 0 mm 0.00 W/m2
18:12 -11.9 °C -13.3 °C 34130.9 hPa South 64.7 km/h 38.8 km/h 84 % 0 mm 0.00 W/m2
18:18 -11.9 °C -13.3 °C 34137.7 hPa South 56.6 km/h 31.5 km/h 85 % 0 mm 0.00 W/m2
18:23 -12 °C -13.2 °C 34134.3 hPa WNW 50.7 km/h 32.3 km/h 86 % 0 mm 0.00 W/m2
18:25 -12 °C -13.2 °C 34134.3 hPa SSW 25.9 km/h 57 km/h 86 % 0 mm 0.00 W/m2
18:33 -12.1 °C -13.1 °C 34144.4 hPa South 44.1 km/h 26.9 km/h 88 % 0 mm 0.00 W/m2
18:37 -12.2 °C -13.2 °C 34151.2 hPa SW 47.6 km/h 24.8 km/h 88 % 7.62 mm 0.00 W/m2
18:43 -12.3 °C -13.2 °C 34158 hPa SSW 62.6 km/h 35.7 km/h 89 % 12.7 mm 0.00 W/m2
18:48 -12.3 °C -13.2 °C 34161.4 hPa SSW 50.7 km/h 29 km/h 90 % 25.4 mm 0.00 W/m2
18:53 -12.4 °C -13.3 °C 34164.7 hPa WSW 33.6 km/h 17.5 km/h 90 % 50.8 mm 0.00 W/m2
18:58 -12.3 °C -13.1 °C 34168.1 hPa SSW 47.6 km/h 19.5 km/h 91 % 71.12 mm 0.00 W/m2
19:00 -12.6 °C -13.1 °C 34229.1 hPa South 31.1 km/h 62.1 km/h 93 % 104.14 mm 0.00 W/m2
19:03 -12.3 °C -13 °C 34171.5 hPa SSW 50.7 km/h 28 km/h 91 % 71.12 mm 0.00 W/m2
19:08 -12.3 °C -13 °C 34178.3 hPa SSW 64.7 km/h 37 km/h 92 % 83.82 mm 0.00 W/m2
19:12 -12.4 °C -13.2 °C 34174.9 hPa SSW 50.7 km/h 32.2 km/h 92 % 96.52 mm 0.00 W/m2
19:17 -12.6 °C -13.2 °C 34181.7 hPa SSE 44.1 km/h 32.8 km/h 92 % 109.22 mm 0.00 W/m2
19:22 -12.6 °C -13.3 °C 34185.1 hPa South 41.7 km/h 20 km/h 92 % 109.22 mm 0.00 W/m2
19:28 -12.6 °C -13.3 °C 34188.4 hPa South 36.2 km/h 21.7 km/h 92 % 142.24 mm 0.00 W/m2
19:30 -12.3 °C -12.9 °C 34256.2 hPa SSW 15.6 km/h 46.7 km/h 93 % 63.5 mm 0.00 W/m2
19:38 -12.6 °C -13.2 °C 34195.2 hPa South 51.8 km/h 34.1 km/h 93 % 154.94 mm 0.00 W/m2
19:42 -12.6 °C -13.2 °C 34198.6 hPa SSW 51.8 km/h 36 km/h 93 % 147.32 mm 0.00 W/m2
19:46 -12.6 °C -13.2 °C 34198.6 hPa South 50.7 km/h 22.9 km/h 93 % 142.24 mm 0.00 W/m2
19:53 -12.4 °C -13.1 °C 34205.4 hPa South 47.6 km/h 31.9 km/h 93 % 116.84 mm 0.00 W/m2
20:03 -12.4 °C -12.9 °C 34218.9 hPa SSW 38.8 km/h 25.4 km/h 93 % 109.22 mm 0.00 W/m2
20:12 -12.3 °C -12.8 °C 34225.7 hPa SSW 29.8 km/h 14.8 km/h 93 % 91.44 mm 0.00 W/m2
20:15 -12.3 °C -12.8 °C 34229.1 hPa SSW 36.2 km/h 17.9 km/h 93 % 91.44 mm 0.00 W/m2
20:22 -12.2 °C -12.8 °C 34235.8 hPa South 17.9 km/h 8.9 km/h 93 % 83.82 mm 0.00 W/m2
20:27 -12.2 °C -12.8 °C 34235.8 hPa West 29.8 km/h 12.4 km/h 93 % 71.12 mm 0.00 W/m2
20:30 -12.1 °C -12.6 °C 34293.4 hPa SSW 15.6 km/h 44.1 km/h 93 % 38.1 mm 0.00 W/m2
20:30 -12.2 °C -12.8 °C 34239.2 hPa West 20.9 km/h 9 km/h 93 % 63.5 mm 0.00 W/m2
20:37 -12.2 °C -12.7 °C 34246 hPa SW 44.1 km/h 22.2 km/h 94 % 58.42 mm 0.00 W/m2
20:48 -12.3 °C -12.9 °C 34252.8 hPa WSW 28.5 km/h 15.8 km/h 93 % 91.44 mm 0.00 W/m2
20:53 -12.3 °C -12.9 °C 34252.8 hPa SW 29.8 km/h 8.5 km/h 93 % 83.82 mm 0.00 W/m2
20:57 -12.3 °C -12.9 °C 34256.2 hPa WSW 29.8 km/h 17.5 km/h 93 % 83.82 mm 0.00 W/m2
21:03 -12.2 °C -12.8 °C 34256.2 hPa West 26.9 km/h 16.1 km/h 93 % 71.12 mm 0.00 W/m2
21:08 -12.1 °C -12.6 °C 34259.5 hPa South 20.9 km/h 11.1 km/h 93 % 71.12 mm 0.00 W/m2
21:13 -11.9 °C -12.6 °C 34262.9 hPa SSW 38.8 km/h 21.7 km/h 93 % 63.5 mm 0.00 W/m2
21:17 -11.9 °C -12.6 °C 34262.9 hPa SSW 25.9 km/h 15.8 km/h 92 % 58.42 mm 0.00 W/m2
21:19 -11.9 °C -12.6 °C 34269.7 hPa SSW 32.8 km/h 17.9 km/h 92 % 58.42 mm 0.00 W/m2
21:27 -12 °C -12.6 °C 34276.5 hPa SW 26.9 km/h 14 km/h 93 % 45.72 mm 0.00 W/m2
21:33 -12.1 °C -12.6 °C 34279.9 hPa SSW 15 km/h 6.8 km/h 93 % 38.1 mm 0.00 W/m2
21:38 -12.1 °C -12.7 °C 34279.9 hPa SSW 15.6 km/h 8.5 km/h 93 % 25.4 mm 0.00 W/m2
21:42 -12.1 °C -12.7 °C 34279.9 hPa SSW 9 km/h 2.9 km/h 93 % 20.32 mm 0.00 W/m2
21:48 -12.1 °C -12.7 °C 34290 hPa SSW 10.3 km/h 8.9 km/h 93 % 12.7 mm 0.00 W/m2
21:51 -12.1 °C -12.7 °C 34290 hPa SSW 10.3 km/h 6.4 km/h 93 % 20.32 mm 0.00 W/m2
21:57 -12.2 °C -12.7 °C 34293.4 hPa SSW 7.7 km/h 3.7 km/h 93 % 38.1 mm 0.00 W/m2
22:03 -12.2 °C -12.7 °C 34303.6 hPa WSW 15.6 km/h 6.4 km/h 93 % 71.12 mm 0.00 W/m2
22:08 -12.2 °C -12.8 °C 34307 hPa South 29.8 km/h 9.8 km/h 93 % 83.82 mm 0.00 W/m2
22:11 -12.3 °C -12.8 °C 34303.6 hPa South 26.9 km/h 18.7 km/h 93 % 96.52 mm 0.00 W/m2
22:18 -12.3 °C -12.8 °C 34303.6 hPa South 18.2 km/h 12.2 km/h 93 % 104.14 mm 0.00 W/m2
22:23 -12.3 °C -12.9 °C 34307 hPa South 23.8 km/h 11.4 km/h 93 % 104.14 mm 0.00 W/m2
22:27 -12.3 °C -12.9 °C 34310.3 hPa South 17.9 km/h 11.1 km/h 93 % 104.14 mm 0.00 W/m2
22:33 -12.3 °C -12.8 °C 34307 hPa South 17.9 km/h 9 km/h 93 % 104.14 mm 0.00 W/m2
22:38 -12.2 °C -12.8 °C 34310.3 hPa South 18.2 km/h 8.9 km/h 93 % 104.14 mm 0.00 W/m2
22:43 -12.2 °C -12.8 °C 34313.7 hPa South 20.9 km/h 15 km/h 93 % 104.14 mm 0.00 W/m2
22:48 -12.2 °C -12.7 °C 34313.7 hPa SSW 20.8 km/h 11.4 km/h 93 % 83.82 mm 0.00 W/m2
22:53 -12.1 °C -12.7 °C 34313.7 hPa South 33.6 km/h 17.5 km/h 93 % 76.2 mm 0.00 W/m2
22:58 -12 °C -12.6 °C 34313.7 hPa SSW 12.9 km/h 9 km/h 93 % 63.5 mm 0.00 W/m2
23:00 -12 °C -12.6 °C 34317.1 hPa South 28.5 km/h 15.8 km/h 93 % 58.42 mm 0.00 W/m2
23:08 -12.1 °C -12.7 °C 34320.5 hPa SSW 25.9 km/h 13.2 km/h 92 % 12.7 mm 0.00 W/m2
23:11 -12.1 °C -12.8 °C 34320.5 hPa South 20.9 km/h 8.5 km/h 92 % 7.62 mm 0.00 W/m2
23:18 -12.2 °C -12.9 °C 34320.5 hPa South 18.2 km/h 12.2 km/h 91 % 0 mm 0.00 W/m2
23:23 -12.3 °C -13.1 °C 34327.3 hPa South 18.2 km/h 12.2 km/h 91 % 0 mm 0.00 W/m2
23:28 -12.3 °C -13 °C 34330.7 hPa South 23.8 km/h 14 km/h 92 % 0 mm 0.00 W/m2
23:32 -12.4 °C -13.2 °C 34330.7 hPa South 29.8 km/h 15.6 km/h 91 % 0 mm 0.00 W/m2
23:35 -12.4 °C -13.1 °C 34330.7 hPa South 29.8 km/h 20.4 km/h 92 % 0 mm 0.00 W/m2
23:43 -12.4 °C -13.2 °C 34330.7 hPa South 29.8 km/h 22.5 km/h 92 % 0 mm 0.00 W/m2
23:48 -12.4 °C -13.2 °C 34330.7 hPa South 32.8 km/h 20.8 km/h 91 % 0 mm 0.00 W/m2
23:52 -12.4 °C -13.2 °C 34330.7 hPa SSW 33.6 km/h 20.4 km/h 91 % 0 mm 0.00 W/m2
23:58 -12.4 °C -13.2 °C 34334 hPa South 33.6 km/h 22.9 km/h 91 % 0 mm 0.00 W/m2
Meteocoruña
Agradecimientos a Weather Underground - 3 mb